Time;durP1;ratioP1;P1;durP2;ratioP2;P2;SDS_P1;SDS_P2;PMS_P1;PMS_P2;Temp;Humidity;BMP_temperature;BMP_pressure;BME280_temperature;BME280_humidity;BME280_pressure;Samples;Min_cycle;Max_cycle;Signal;HPM_P1;HPM_P2
2021/01/14 00:02:21;;;;;;;19.00;10.73;;;4.20;99.90;;;;;;4973996;28;20453;-78
2021/01/14 00:04:47;;;;;;;16.60;10.47;;;4.20;99.90;;;;;;4975308;28;20266;-79
2021/01/14 00:07:13;;;;;;;16.77;10.80;;;4.20;99.90;;;;;;4974361;28;20223;-79
2021/01/14 00:09:39;;;;;;;19.73;11.90;;;4.20;99.90;;;;;;4975292;28;20199;-79
2021/01/14 00:12:05;;;;;;;18.17;12.07;;;4.10;99.90;;;;;;4974629;28;20698;-79
2021/01/14 00:14:30;;;;;;;20.13;14.00;;;4.10;99.90;;;;;;4974978;28;20569;-79
2021/01/14 00:16:56;;;;;;;21.23;11.80;;;4.20;99.90;;;;;;4972926;28;20226;-79
2021/01/14 00:19:22;;;;;;;23.63;12.40;;;4.10;99.90;;;;;;4974694;28;20179;-78
2021/01/14 00:21:48;;;;;;;23.10;13.50;;;4.10;99.90;;;;;;4965873;28;20691;-78
2021/01/14 00:24:13;;;;;;;19.00;12.80;;;4.10;99.90;;;;;;4974213;28;20187;-77
2021/01/14 00:26:40;;;;;;;26.63;12.70;;;4.10;99.90;;;;;;4974028;28;20231;-78
2021/01/14 00:29:07;;;;;;;19.60;13.55;;;4.10;99.90;;;;;;4974435;28;20207;-78
2021/01/14 00:31:33;;;;;;;21.70;12.60;;;4.10;99.90;;;;;;4973861;28;20212;-78
2021/01/14 00:33:59;;;;;;;20.10;13.55;;;4.10;99.90;;;;;;4974302;28;20209;-79
2021/01/14 00:37:50;;;;;;;16.77;12.97;;;4.00;99.90;;;;;;4973714;28;20557;-80
2021/01/14 00:39:23;;;;;;;14.15;10.02;;;4.00;99.90;;;;;;4964568;28;20186;-79
2021/01/14 00:41:49;;;;;;;14.00;7.53;;;4.00;99.90;;;;;;4973379;28;20215;-79
2021/01/14 00:44:15;;;;;;;15.30;7.33;;;3.90;99.90;;;;;;4973345;28;20195;-79
2021/01/14 00:46:41;;;;;;;14.13;7.73;;;3.90;99.90;;;;;;4972064;28;20729;-79
2021/01/14 00:49:07;;;;;;;13.00;6.30;;;3.90;99.90;;;;;;4974083;28;20493;-78
2021/01/14 00:51:38;;;;;;;17.70;6.40;;;3.80;99.90;;;;;;4988080;28;20864;-78
2021/01/14 00:54:05;;;;;;;9.27;6.88;;;3.80;99.90;;;;;;4974034;28;20274;-79
2021/01/14 00:56:35;;;;;;;12.95;6.15;;;3.80;99.90;;;;;;4956682;28;20286;-80
2021/01/14 00:59:02;;;;;;;10.85;6.10;;;3.70;99.90;;;;;;4975316;28;20269;-79
2021/01/14 01:01:28;;;;;;;7.90;5.10;;;3.70;99.90;;;;;;4974257;28;20574;-80
2021/01/14 01:03:54;;;;;;;22.83;5.65;;;3.70;99.90;;;;;;4956764;28;20626;-78
2021/01/14 01:06:24;;;;;;;15.13;4.97;;;3.70;99.90;;;;;;4973246;28;20191;-80
2021/01/14 01:08:50;;;;;;;9.15;5.28;;;3.70;99.90;;;;;;4974956;28;20290;-80
2021/01/14 01:11:26;;;;;;;8.75;4.93;;;3.60;99.90;;;;;;4975409;28;20191;-79
2021/01/14 01:13:52;;;;;;;9.63;5.03;;;3.60;99.90;;;;;;4987052;23;20701;-80
2021/01/14 01:16:18;;;;;;;9.27;4.68;;;3.70;99.90;;;;;;4957590;28;20218;-80
2021/01/14 01:18:44;;;;;;;11.43;4.85;;;3.70;99.90;;;;;;4974416;28;20259;-80
2021/01/14 01:21:10;;;;;;;9.23;5.20;;;3.70;99.90;;;;;;4973779;28;20635;-78
2021/01/14 01:23:36;;;;;;;14.90;5.67;;;3.70;99.90;;;;;;4972621;28;20238;-78
2021/01/14 01:26:02;;;;;;;12.40;4.30;;;3.60;99.90;;;;;;4972298;28;20241;-78
2021/01/14 01:28:28;;;;;;;15.95;5.47;;;3.70;99.90;;;;;;4972349;28;20274;-78
2021/01/14 01:30:54;;;;;;;12.83;5.00;;;3.60;99.90;;;;;;4973187;28;20594;-78
2021/01/14 01:33:19;;;;;;;12.20;4.00;;;3.60;99.90;;;;;;4972535;28;20211;-80
2021/01/14 01:35:52;;;;;;;15.40;4.90;;;3.70;99.90;;;;;;4974372;28;20191;-80
2021/01/14 01:38:18;;;;;;;11.98;4.30;;;3.60;99.90;;;;;;4973811;28;20701;-80
2021/01/14 01:40:44;;;;;;;7.43;4.10;;;3.70;99.90;;;;;;4974382;28;20235;-80
2021/01/14 01:43:10;;;;;;;10.65;4.85;;;3.60;99.90;;;;;;4973430;28;20218;-80
2021/01/14 01:45:35;;;;;;;7.30;3.47;;;3.60;99.90;;;;;;4974085;28;20550;-80
2021/01/14 01:48:01;;;;;;;7.53;4.10;;;3.60;99.90;;;;;;4973398;28;20211;-79
2021/01/14 01:50:27;;;;;;;12.60;4.70;;;3.60;99.90;;;;;;4974395;28;20909;-80
2021/01/14 01:52:57;;;;;;;6.95;3.17;;;3.60;99.90;;;;;;4973584;28;20825;-80
2021/01/14 01:55:24;;;;;;;7.75;3.33;;;3.60;99.90;;;;;;4972254;28;20209;-78
2021/01/14 01:57:50;;;;;;;9.77;3.70;;;3.50;99.90;;;;;;4971692;28;20214;-78
2021/01/14 02:00:16;;;;;;;6.17;2.87;;;3.50;99.90;;;;;;4972263;28;20186;-78
2021/01/14 02:02:41;;;;;;;5.43;2.90;;;3.40;99.90;;;;;;4971731;28;20207;-79
2021/01/14 02:05:08;;;;;;;13.27;2.90;;;3.40;99.90;;;;;;4954614;28;20447;-78
2021/01/14 02:07:39;;;;;;;7.22;2.25;;;3.40;99.90;;;;;;4971445;28;20266;-79
2021/01/14 02:10:18;;;;;;;8.30;2.70;;;3.40;99.90;;;;;;4972654;28;20281;-80
2021/01/14 02:13:16;;;;;;;8.48;2.90;;;3.40;99.90;;;;;;4973414;28;20239;-80
2021/01/14 02:15:43;;;;;;;11.20;3.45;;;3.50;99.90;;;;;;4955025;29;20226;-80
2021/01/14 02:18:09;;;;;;;5.45;2.95;;;3.40;99.90;;;;;;4951983;28;20215;-80
2021/01/14 02:20:36;;;;;;;8.02;3.53;;;3.40;99.90;;;;;;4973896;28;20246;-80
2021/01/14 02:23:10;;;;;;;8.40;3.13;;;3.40;99.90;;;;;;4972421;28;20207;-80
2021/01/14 02:26:03;;;;;;;8.68;3.30;;;3.40;99.90;;;;;;4966309;28;20190;-81
2021/01/14 02:28:30;;;;;;;11.45;3.20;;;3.40;99.90;;;;;;4970079;28;20231;-78
2021/01/14 02:30:56;;;;;;;6.80;3.47;;;3.40;99.90;;;;;;4972216;28;20167;-78
2021/01/14 02:33:22;;;;;;;8.00;3.20;;;3.40;99.90;;;;;;4970984;28;20213;-79
2021/01/14 02:35:47;;;;;;;9.73;3.17;;;3.40;99.90;;;;;;4970795;28;20172;-78
2021/01/14 02:38:13;;;;;;;7.13;2.33;;;3.40;99.90;;;;;;4971019;28;20242;-79
2021/01/14 02:40:39;;;;;;;9.23;3.40;;;3.30;99.90;;;;;;4972245;28;20646;-80
2021/01/14 02:43:04;;;;;;;8.53;2.37;;;3.30;99.90;;;;;;4973445;28;20219;-80
2021/01/14 02:45:30;;;;;;;9.73;2.57;;;3.30;99.90;;;;;;4956484;28;20525;-80
2021/01/14 02:47:57;;;;;;;9.80;3.00;;;3.30;99.90;;;;;;4971794;28;20214;-80
2021/01/14 02:50:24;;;;;;;7.40;2.33;;;3.30;99.90;;;;;;4973320;28;20206;-79
2021/01/14 02:52:51;;;;;;;7.88;2.30;;;3.30;99.90;;;;;;4970856;28;20548;-78
2021/01/14 02:55:17;;;;;;;5.22;1.77;;;3.30;99.90;;;;;;4971150;28;20211;-79
2021/01/14 02:57:44;;;;;;;10.37;2.57;;;3.30;99.90;;;;;;4969740;28;20226;-79
2021/01/14 03:00:11;;;;;;;3.60;2.28;;;3.20;99.90;;;;;;4971316;28;20446;-79
2021/01/14 03:02:36;;;;;;;11.60;1.90;;;3.20;99.90;;;;;;4955356;28;20215;-79
2021/01/14 03:05:03;;;;;;;6.27;1.87;;;3.20;99.90;;;;;;4970862;28;20198;-79
2021/01/14 03:07:28;;;;;;;10.15;2.60;;;3.20;99.90;;;;;;4970582;28;20581;-79
2021/01/14 03:09:54;;;;;;;9.37;2.00;;;3.20;99.90;;;;;;4971299;28;20211;-78
2021/01/14 03:12:19;;;;;;;4.37;1.87;;;3.20;99.90;;;;;;4969373;28;20235;-79
2021/01/14 03:14:45;;;;;;;9.10;2.07;;;3.20;99.90;;;;;;4971242;28;20195;-79
2021/01/14 03:17:11;;;;;;;8.47;2.00;;;3.20;99.90;;;;;;4952837;28;20274;-78
2021/01/14 03:19:36;;;;;;;6.37;1.83;;;3.20;99.90;;;;;;4971325;28;20191;-78
2021/01/14 03:22:02;;;;;;;9.37;1.60;;;3.20;99.90;;;;;;4970478;28;20218;-78
2021/01/14 03:24:29;;;;;;;13.07;2.40;;;3.20;99.90;;;;;;4970948;28;20610;-78
2021/01/14 03:26:54;;;;;;;5.28;2.28;;;3.20;99.90;;;;;;4969208;28;20301;-78
2021/01/14 03:29:20;;;;;;;7.87;2.70;;;3.20;99.90;;;;;;4970829;28;20641;-78
2021/01/14 03:31:46;;;;;;;7.50;2.67;;;3.10;99.90;;;;;;4970131;28;20621;-78
2021/01/14 03:34:11;;;;;;;8.57;2.00;;;3.20;99.90;;;;;;4969621;28;20198;-78
2021/01/14 03:36:56;;;;;;;6.03;2.20;;;3.20;99.90;;;;;;4953897;28;20203;-78
2021/01/14 03:39:29;;;;;;;7.90;1.65;;;3.10;99.90;;;;;;4970871;28;20250;-78
2021/01/14 03:41:56;;;;;;;10.07;1.80;;;3.10;99.90;;;;;;4970815;28;20219;-79
2021/01/14 03:44:22;;;;;;;10.48;2.47;;;3.20;99.90;;;;;;4971207;28;20294;-78
2021/01/14 03:46:49;;;;;;;6.55;1.88;;;3.10;99.90;;;;;;4970322;28;20731;-78
2021/01/14 03:49:16;;;;;;;12.02;2.20;;;3.30;99.90;;;;;;4971077;28;20213;-78
2021/01/14 03:51:46;;;;;;;9.65;1.75;;;3.20;99.90;;;;;;4970827;28;20226;-79
2021/01/14 03:54:12;;;;;;;6.97;2.33;;;3.30;99.90;;;;;;4970757;28;20481;-78
2021/01/14 03:56:39;;;;;;;3.60;1.83;;;3.20;99.90;;;;;;4952639;28;20282;-78
2021/01/14 03:59:05;;;;;;;5.43;1.70;;;3.30;99.90;;;;;;4970937;28;20203;-78
2021/01/14 04:01:32;;;;;;;7.07;2.17;;;3.20;99.90;;;;;;4970887;28;20219;-78
2021/01/14 04:03:58;;;;;;;8.32;2.25;;;3.20;99.90;;;;;;4971761;28;20195;-78
2021/01/14 04:06:37;;;;;;;8.13;2.30;;;3.20;99.90;;;;;;4970214;28;20207;-78
2021/01/14 04:09:05;;;;;;;17.45;3.30;;;3.20;99.90;;;;;;4971257;28;20226;-78
2021/01/14 04:11:31;;;;;;;7.60;2.20;;;3.10;99.90;;;;;;4969210;28;20310;-78
2021/01/14 04:13:57;;;;;;;7.18;2.17;;;3.10;99.90;;;;;;4970224;28;20214;-78
2021/01/14 04:16:22;;;;;;;6.10;1.87;;;3.10;99.90;;;;;;4970318;28;20563;-78
2021/01/14 04:18:48;;;;;;;4.30;1.83;;;3.00;99.90;;;;;;4972100;28;20195;-78
2021/01/14 04:21:16;;;;;;;6.90;2.20;;;3.00;99.90;;;;;;4974679;28;20662;-79
2021/01/14 04:23:45;;;;;;;2.58;1.20;;;3.00;99.90;;;;;;4956535;28;20227;-80
2021/01/14 04:26:12;;;;;;;3.30;1.40;;;3.00;99.90;;;;;;4972501;28;20203;-80
2021/01/14 04:28:39;;;;;;;4.38;1.23;;;3.00;99.90;;;;;;4975627;28;20219;-80
2021/01/14 04:31:05;;;;;;;7.82;1.80;;;2.90;99.90;;;;;;4976069;28;20219;-80
2021/01/14 04:33:31;;;;;;;3.22;1.40;;;2.90;99.90;;;;;;4975948;28;20219;-80
2021/01/14 04:35:59;;;;;;;5.23;1.80;;;2.90;99.90;;;;;;4975975;28;20674;-80
2021/01/14 04:38:26;;;;;;;6.20;1.65;;;2.90;99.90;;;;;;4956325;28;20325;-80
2021/01/14 04:40:56;;;;;;;3.40;1.05;;;2.90;99.90;;;;;;4970137;28;20554;-80
2021/01/14 04:43:24;;;;;;;7.47;2.03;;;2.90;99.90;;;;;;4975073;28;20215;-80
2021/01/14 04:45:54;;;;;;;5.25;1.40;;;2.80;99.90;;;;;;4974452;28;20557;-78
2021/01/14 04:48:21;;;;;;;8.15;2.35;;;2.80;99.90;;;;;;4973368;28;20281;-78
2021/01/14 04:50:48;;;;;;;3.35;1.65;;;2.80;99.90;;;;;;4974238;28;20209;-78
2021/01/14 04:53:17;;;;;;;4.97;1.90;;;2.80;99.90;;;;;;4973613;28;20219;-78
2021/01/14 04:55:48;;;;;;;5.60;1.58;;;2.80;99.90;;;;;;4973335;28;20195;-78
2021/01/14 04:58:18;;;;;;;9.30;2.28;;;2.80;99.90;;;;;;4956612;28;20618;-78
2021/01/14 05:00:51;;;;;;;4.22;2.20;;;2.80;99.90;;;;;;4974285;28;20210;-78
2021/01/14 05:03:22;;;;;;;5.70;2.17;;;2.90;99.90;;;;;;4973702;28;20215;-78
2021/01/14 05:05:49;;;;;;;7.30;1.85;;;2.90;99.90;;;;;;4973842;28;20200;-78
2021/01/14 05:08:16;;;;;;;8.18;2.00;;;2.90;99.90;;;;;;4973410;28;20737;-78
2021/01/14 05:10:43;;;;;;;8.77;2.17;;;2.90;99.90;;;;;;4974033;28;20202;-78
2021/01/14 05:13:09;;;;;;;6.15;1.70;;;2.90;99.90;;;;;;4973406;28;20226;-78
2021/01/14 05:15:37;;;;;;;3.77;2.43;;;2.90;99.90;;;;;;4956782;28;20199;-78
2021/01/14 05:18:03;;;;;;;3.15;2.17;;;2.90;99.90;;;;;;4973232;28;20469;-78
2021/01/14 05:20:29;;;;;;;7.70;1.85;;;2.90;99.90;;;;;;4956388;28;20199;-78
2021/01/14 05:23:03;;;;;;;6.57;2.77;;;2.80;99.90;;;;;;4973147;28;20223;-78
2021/01/14 05:25:30;;;;;;;13.18;1.85;;;2.80;99.90;;;;;;4973712;28;20831;-78
2021/01/14 05:28:14;;;;;;;7.70;1.30;;;2.80;99.90;;;;;;4973195;28;20222;-78
2021/01/14 05:30:41;;;;;;;4.10;1.45;;;2.90;99.90;;;;;;4970509;28;20283;-78
2021/01/14 05:33:23;;;;;;;8.18;1.50;;;2.90;99.90;;;;;;4973055;28;20211;-78
2021/01/14 05:35:53;;;;;;;5.25;1.38;;;2.90;99.90;;;;;;4958066;28;20201;-78
2021/01/14 05:38:30;;;;;;;3.17;1.50;;;2.80;99.90;;;;;;4973178;28;20578;-78
2021/01/14 05:41:19;;;;;;;8.70;1.67;;;2.90;99.90;;;;;;4973603;28;20202;-78
2021/01/14 05:43:49;;;;;;;6.82;1.50;;;2.80;99.90;;;;;;4958118;28;20211;-78
2021/01/14 05:46:21;;;;;;;3.45;1.33;;;2.80;99.90;;;;;;4972989;28;20191;-78
2021/01/14 05:48:48;;;;;;;2.63;1.42;;;2.80;99.90;;;;;;4972637;28;20686;-78
2021/01/14 05:51:22;;;;;;;4.43;1.30;;;2.70;99.90;;;;;;4973047;28;20264;-78
2021/01/14 05:53:56;;;;;;;4.70;1.33;;;2.70;99.90;;;;;;4972878;28;20278;-78
2021/01/14 05:56:42;;;;;;;4.13;1.50;;;2.70;99.90;;;;;;4972106;28;20262;-78
2021/01/14 05:59:13;;;;;;;7.43;1.50;;;2.70;99.90;;;;;;4973290;28;20658;-77
2021/01/14 06:01:51;;;;;;;6.95;1.77;;;2.70;99.90;;;;;;4972508;28;20801;-78
2021/01/14 06:04:21;;;;;;;3.28;2.30;;;2.70;99.90;;;;;;4972744;28;20206;-78
2021/01/14 06:06:48;;;;;;;2.28;1.38;;;2.60;99.90;;;;;;4973431;28;20238;-79
2021/01/14 06:09:15;;;;;;;6.05;1.73;;;2.60;99.90;;;;;;4973944;28;20207;-80
2021/01/14 06:11:44;;;;;;;8.27;1.50;;;2.60;99.90;;;;;;4954329;28;21319;-80
2021/01/14 06:14:40;;;;;;;6.50;1.65;;;2.60;99.90;;;;;;4969587;28;20210;-78
2021/01/14 06:17:07;;;;;;;8.32;1.50;;;2.60;99.90;;;;;;4963115;28;20302;-78
2021/01/14 06:19:34;;;;;;;5.20;1.30;;;2.60;99.90;;;;;;4972692;28;20187;-78
2021/01/14 06:22:00;;;;;;;5.22;1.70;;;2.60;99.90;;;;;;4972106;28;20593;-79
2021/01/14 06:24:26;;;;;;;6.30;1.80;;;2.60;99.90;;;;;;4972518;28;20302;-78
2021/01/14 06:26:53;;;;;;;6.07;1.93;;;2.50;99.90;;;;;;4972014;28;20810;-78
2021/01/14 06:29:21;;;;;;;10.20;2.80;;;2.50;99.90;;;;;;4972231;28;20207;-78
2021/01/14 06:31:47;;;;;;;6.32;1.60;;;2.50;99.90;;;;;;4972141;28;20694;-78
2021/01/14 06:34:19;;;;;;;4.50;2.03;;;2.50;99.90;;;;;;4954975;28;20678;-78
2021/01/14 06:36:47;;;;;;;7.55;1.52;;;2.50;99.90;;;;;;4971748;28;20223;-78
2021/01/14 06:39:15;;;;;;;3.70;1.45;;;2.40;99.90;;;;;;4955850;28;20619;-79
2021/01/14 06:41:43;;;;;;;4.75;1.90;;;2.40;99.90;;;;;;4972383;28;20206;-79
2021/01/14 06:44:11;;;;;;;3.15;1.55;;;2.40;99.90;;;;;;4973314;28;20218;-79
2021/01/14 06:46:37;;;;;;;6.13;1.20;;;2.40;99.90;;;;;;4971937;28;20203;-78
2021/01/14 06:49:03;;;;;;;9.35;2.03;;;2.40;99.90;;;;;;4954935;28;20313;-78
2021/01/14 06:51:52;;;;;;;8.97;1.47;;;2.30;99.90;;;;;;4971679;28;20725;-78
2021/01/14 06:54:19;;;;;;;3.10;1.20;;;2.30;99.90;;;;;;4972534;28;20203;-78
2021/01/14 06:57:02;;;;;;;4.25;1.52;;;2.30;99.90;;;;;;4971746;28;20226;-78
2021/01/14 06:59:28;;;;;;;3.10;1.27;;;2.30;99.90;;;;;;4972112;28;20204;-78
2021/01/14 07:02:06;;;;;;;7.00;2.00;;;2.30;99.90;;;;;;4971913;28;20749;-80
2021/01/14 07:04:43;;;;;;;8.93;2.13;;;2.30;99.90;;;;;;4972678;28;20199;-80
2021/01/14 07:07:27;;;;;;;15.82;2.47;;;2.30;99.90;;;;;;4972690;28;20215;-79
2021/01/14 07:10:14;;;;;;;6.00;1.67;;;2.30;99.90;;;;;;4960429;28;20225;-80
2021/01/14 07:12:45;;;;;;;7.30;2.45;;;2.30;99.90;;;;;;4972063;28;20215;-79
2021/01/14 07:15:16;;;;;;;7.10;1.95;;;2.30;99.90;;;;;;4953651;29;20188;-78
2021/01/14 07:17:43;;;;;;;7.57;2.33;;;2.30;99.90;;;;;;4972143;28;20223;-80
2021/01/14 07:20:12;;;;;;;12.85;2.38;;;2.30;99.90;;;;;;4972238;28;20243;-78
2021/01/14 07:22:53;;;;;;;5.43;2.40;;;2.30;99.90;;;;;;4953972;28;20238;-78
2021/01/14 07:25:20;;;;;;;3.95;1.88;;;2.40;99.90;;;;;;4971481;28;20203;-78
2021/01/14 07:27:48;;;;;;;6.82;1.90;;;2.40;99.90;;;;;;4971693;28;20297;-79
2021/01/14 07:30:16;;;;;;;7.15;2.20;;;2.40;99.90;;;;;;4972747;28;20290;-80
2021/01/14 07:33:04;;;;;;;4.18;1.75;;;2.30;99.90;;;;;;4972215;28;20242;-80
2021/01/14 07:35:35;;;;;;;6.93;2.30;;;2.30;99.90;;;;;;4972632;28;20192;-79
2021/01/14 07:38:02;;;;;;;8.35;2.55;;;2.30;99.90;;;;;;4972219;28;20552;-79
2021/01/14 07:40:29;;;;;;;10.32;2.65;;;2.30;99.90;;;;;;4972926;28;20191;-79
2021/01/14 07:42:55;;;;;;;6.70;1.85;;;2.30;99.90;;;;;;4971739;28;20219;-78
2021/01/14 07:45:21;;;;;;;6.55;2.30;;;2.30;99.90;;;;;;4971642;28;20214;-78
2021/01/14 07:47:47;;;;;;;6.33;2.27;;;2.30;99.90;;;;;;4954374;28;20582;-80
2021/01/14 07:50:24;;;;;;;8.40;2.60;;;2.30;99.90;;;;;;4955552;28;20297;-80
2021/01/14 07:52:59;;;;;;;8.82;2.60;;;2.30;99.90;;;;;;4965182;28;20728;-79
2021/01/14 07:55:26;;;;;;;6.50;2.40;;;2.30;99.90;;;;;;4975344;28;20281;-78
2021/01/14 07:58:12;;;;;;;6.00;2.72;;;2.30;99.90;;;;;;4974421;28;20219;-78
2021/01/14 08:00:40;;;;;;;6.63;2.20;;;2.30;99.90;;;;;;4976826;28;20266;-79
2021/01/14 08:03:15;;;;;;;13.27;2.53;;;2.30;99.90;;;;;;4976203;28;20215;-79
2021/01/14 08:05:58;;;;;;;4.45;2.20;;;2.30;99.90;;;;;;4976490;28;20190;-79
2021/01/14 08:08:37;;;;;;;4.20;1.55;;;2.20;99.90;;;;;;4976039;28;20215;-78
2021/01/14 08:11:33;;;;;;;5.45;2.22;;;2.20;99.90;;;;;;4975512;28;20333;-78
2021/01/14 08:14:08;;;;;;;7.47;2.03;;;2.20;99.90;;;;;;4959365;28;20745;-79
2021/01/14 08:16:33;;;;;;;25.42;3.55;;;2.20;99.90;;;;;;4976774;28;20254;-79
2021/01/14 08:19:14;;;;;;;8.57;1.93;;;2.20;99.90;;;;;;4976815;28;20199;-79
2021/01/14 08:21:42;;;;;;;5.45;2.08;;;2.20;99.90;;;;;;4973662;28;20181;-78
2021/01/14 08:24:08;;;;;;;7.07;2.08;;;2.20;99.90;;;;;;4975121;28;20250;-79
2021/01/14 08:26:59;;;;;;;7.60;2.45;;;2.30;99.90;;;;;;4975355;28;20199;-78
2021/01/14 08:29:33;;;;;;;8.90;2.08;;;2.30;99.90;;;;;;4976055;28;20184;-79
2021/01/14 08:31:59;;;;;;;5.85;1.75;;;2.30;99.90;;;;;;4975521;28;20211;-79
2021/01/14 08:34:26;;;;;;;3.67;1.63;;;2.30;99.90;;;;;;4976405;28;20186;-80
2021/01/14 08:36:56;;;;;;;6.72;1.95;;;2.30;99.90;;;;;;4975583;28;20211;-79
2021/01/14 08:39:24;;;;;;;5.68;1.75;;;2.30;99.90;;;;;;4958756;28;20179;-79
2021/01/14 08:41:51;;;;;;;4.43;1.48;;;2.30;99.90;;;;;;4975653;28;20245;-79
2021/01/14 08:44:18;;;;;;;7.22;2.80;;;2.30;99.90;;;;;;4976077;28;20187;-79
2021/01/14 08:46:50;;;;;;;6.00;1.73;;;2.30;99.90;;;;;;4975472;28;20709;-79
2021/01/14 08:49:17;;;;;;;11.10;2.10;;;2.30;99.90;;;;;;4975402;28;20196;-78
2021/01/14 08:51:44;;;;;;;10.88;2.88;;;2.30;99.90;;;;;;4975332;28;20214;-79
2021/01/14 08:54:10;;;;;;;5.97;4.00;;;2.40;99.90;;;;;;4975617;28;20736;-79
2021/01/14 08:56:37;;;;;;;3.30;1.73;;;2.30;99.90;;;;;;4957041;28;20539;-78
2021/01/14 08:59:11;;;;;;;14.38;3.17;;;2.40;99.90;;;;;;4973868;28;20321;-79
2021/01/14 09:01:37;;;;;;;4.47;1.40;;;2.40;99.90;;;;;;4974782;28;20199;-79
2021/01/14 09:04:05;;;;;;;9.77;2.20;;;2.40;99.90;;;;;;4975717;28;20195;-80
2021/01/14 09:06:32;;;;;;;7.55;2.55;;;2.40;99.90;;;;;;4957249;28;20202;-79
2021/01/14 09:08:59;;;;;;;5.47;2.45;;;2.40;99.90;;;;;;4974913;28;20566;-79
2021/01/14 09:11:28;;;;;;;8.10;2.75;;;2.40;99.90;;;;;;4974686;28;20273;-78
2021/01/14 09:14:04;;;;;;;5.97;2.42;;;2.40;99.90;;;;;;4974868;28;20215;-81
2021/01/14 09:16:30;;;;;;;6.32;2.70;;;2.40;99.90;;;;;;4974626;28;20191;-79
2021/01/14 09:18:55;;;;;;;4.17;2.37;;;2.40;99.90;;;;;;4974530;28;20275;-78
2021/01/14 09:21:22;;;;;;;5.50;2.60;;;2.50;99.90;;;;;;4974810;28;20444;-79
2021/01/14 09:23:47;;;;;;;9.63;2.90;;;2.60;99.90;;;;;;4974488;28;20301;-79
2021/01/14 09:26:18;;;;;;;6.67;3.37;;;2.50;99.90;;;;;;4974065;28;20297;-78
2021/01/14 09:28:48;;;;;;;9.13;2.67;;;2.60;99.90;;;;;;4973359;28;20223;-79
2021/01/14 09:31:14;;;;;;;7.93;3.70;;;2.60;99.90;;;;;;4974132;28;20223;-79
2021/01/14 09:33:42;;;;;;;8.15;2.72;;;2.50;99.90;;;;;;4974035;28;20243;-79
2021/01/14 09:36:08;;;;;;;5.10;3.10;;;2.60;99.90;;;;;;4973657;28;20253;-79
2021/01/14 09:38:49;;;;;;;9.70;3.57;;;2.60;99.90;;;;;;4974096;28;20238;-79
2021/01/14 09:41:23;;;;;;;6.90;2.85;;;2.60;99.90;;;;;;4974785;28;20534;-79
2021/01/14 09:43:50;;;;;;;4.63;2.53;;;2.60;99.90;;;;;;4974069;28;20221;-79
2021/01/14 09:46:16;;;;;;;5.35;2.55;;;2.60;99.90;;;;;;4974256;28;20199;-79
2021/01/14 09:48:42;;;;;;;13.90;3.43;;;2.70;99.90;;;;;;4973811;28;20622;-79
2021/01/14 09:51:11;;;;;;;8.48;2.90;;;2.70;99.90;;;;;;4955878;28;20229;-78
2021/01/14 09:53:42;;;;;;;7.53;2.72;;;2.70;99.90;;;;;;4972603;28;20290;-78
2021/01/14 09:56:11;;;;;;;24.17;3.60;;;2.80;99.90;;;;;;4972423;28;20191;-77
2021/01/14 09:58:40;;;;;;;5.38;3.25;;;2.80;99.90;;;;;;4972747;28;20211;-77
2021/01/14 10:01:08;;;;;;;3.95;2.75;;;2.70;99.90;;;;;;4973209;28;20192;-78
2021/01/14 10:03:37;;;;;;;6.28;1.80;;;2.70;99.90;;;;;;4955335;28;20314;-79
2021/01/14 10:06:03;;;;;;;4.75;2.28;;;2.80;99.90;;;;;;4956172;28;20744;-78
2021/01/14 10:08:30;;;;;;;4.90;2.58;;;2.80;99.90;;;;;;4972489;28;20283;-79
2021/01/14 10:10:56;;;;;;;9.52;3.13;;;2.80;99.90;;;;;;4955867;28;20562;-78
2021/01/14 10:13:22;;;;;;;7.88;2.55;;;2.80;99.90;;;;;;4969977;28;20685;-78
2021/01/14 10:15:47;;;;;;;7.50;3.17;;;2.80;99.90;;;;;;4953599;28;20184;-78
2021/01/14 10:18:26;;;;;;;5.70;3.10;;;2.80;99.90;;;;;;4953168;28;20208;-79
2021/01/14 10:21:02;;;;;;;5.25;3.15;;;2.80;99.90;;;;;;4964464;28;20191;-78
2021/01/14 10:23:29;;;;;;;7.57;3.25;;;2.80;99.90;;;;;;4972237;28;20629;-78
2021/01/14 10:25:55;;;;;;;7.35;2.78;;;2.80;99.90;;;;;;4972738;28;20192;-78
2021/01/14 10:28:24;;;;;;;8.95;4.35;;;2.80;99.90;;;;;;4971365;28;20211;-79
2021/01/14 10:30:51;;;;;;;6.15;2.90;;;2.80;99.90;;;;;;4973551;28;20195;-79
2021/01/14 10:33:17;;;;;;;5.18;3.05;;;2.80;99.90;;;;;;4972989;28;20214;-79
2021/01/14 10:35:43;;;;;;;11.82;3.45;;;2.70;99.90;;;;;;4973703;28;20195;-79
2021/01/14 10:38:14;;;;;;;5.85;3.22;;;2.80;99.90;;;;;;4973082;28;20218;-79
2021/01/14 10:40:42;;;;;;;4.28;2.60;;;2.70;99.90;;;;;;4957854;28;20206;-80
2021/01/14 10:43:09;;;;;;;6.50;2.70;;;2.70;99.90;;;;;;4972912;28;20223;-79
2021/01/14 10:45:37;;;;;;;5.85;3.85;;;2.70;99.90;;;;;;4973311;28;20171;-78
2021/01/14 10:48:14;;;;;;;5.28;2.78;;;2.80;99.90;;;;;;4972732;28;20241;-79
2021/01/14 10:50:54;;;;;;;7.93;3.63;;;2.90;99.90;;;;;;4953026;29;20187;-79
2021/01/14 10:53:30;;;;;;;17.95;3.97;;;2.90;99.90;;;;;;4970285;28;20219;-79
2021/01/14 10:56:12;;;;;;;8.95;2.67;;;2.90;99.90;;;;;;4973350;28;20561;-79
2021/01/14 10:58:41;;;;;;;10.05;3.60;;;2.90;99.90;;;;;;4972109;28;20214;-79
2021/01/14 11:01:20;;;;;;;8.43;2.88;;;2.80;99.90;;;;;;4955510;28;20213;-78
2021/01/14 11:03:46;;;;;;;6.05;3.65;;;2.80;99.90;;;;;;4972115;28;20218;-78
2021/01/14 11:06:30;;;;;;;7.50;3.85;;;2.80;99.90;;;;;;4973145;28;20475;-78
2021/01/14 11:09:11;;;;;;;6.10;3.70;;;2.80;99.90;;;;;;4972718;28;20211;-78
2021/01/14 11:11:37;;;;;;;7.40;3.30;;;2.70;99.90;;;;;;4972214;28;20191;-78
2021/01/14 11:14:03;;;;;;;19.83;5.60;;;2.70;99.90;;;;;;4972382;28;20310;-78
2021/01/14 11:16:29;;;;;;;17.77;9.18;;;2.70;99.90;;;;;;4972383;28;20438;-79
2021/01/14 11:18:59;;;;;;;25.00;14.50;;;2.80;99.90;;;;;;4956112;28;20206;-78
2021/01/14 11:21:32;;;;;;;16.38;8.80;;;2.80;99.90;;;;;;4972843;28;20262;-79
2021/01/14 11:23:59;;;;;;;15.02;5.95;;;2.90;99.90;;;;;;4973098;28;20720;-78
2021/01/14 11:26:26;;;;;;;8.35;3.60;;;2.80;99.90;;;;;;4969743;28;20234;-78
2021/01/14 11:28:53;;;;;;;15.35;5.00;;;2.80;99.90;;;;;;4994111;23;20210;-78
2021/01/14 11:31:20;;;;;;;8.48;4.65;;;2.90;99.90;;;;;;4957698;28;20278;-78
2021/01/14 11:33:46;;;;;;;7.72;5.10;;;2.90;99.90;;;;;;4946599;28;20247;-78
2021/01/14 11:36:14;;;;;;;6.63;4.10;;;2.80;99.90;;;;;;4996769;28;20306;-78
2021/01/14 11:38:43;;;;;;;7.68;4.53;;;2.80;99.90;;;;;;4969625;28;20450;-78
2021/01/14 11:41:09;;;;;;;7.18;4.82;;;2.80;99.90;;;;;;4994792;28;20242;-77
2021/01/14 11:43:36;;;;;;;8.23;4.93;;;2.80;99.90;;;;;;4987066;28;20222;-78
2021/01/14 11:46:05;;;;;;;18.02;5.68;;;2.80;99.90;;;;;;4986006;28;20171;-78
2021/01/14 11:48:31;;;;;;;12.68;5.22;;;2.80;99.90;;;;;;4996905;28;20230;-77
2021/01/14 11:50:56;;;;;;;10.57;4.73;;;2.80;99.90;;;;;;5000904;28;20173;-78
2021/01/14 11:53:22;;;;;;;8.93;4.53;;;2.80;99.90;;;;;;4982105;28;20215;-77
2021/01/14 11:55:48;;;;;;;13.03;5.07;;;2.70;99.90;;;;;;4987361;28;20570;-77
2021/01/14 11:58:13;;;;;;;7.57;4.87;;;2.80;99.90;;;;;;4979980;28;20294;-77
2021/01/14 12:00:39;;;;;;;7.20;4.80;;;2.80;99.90;;;;;;4993170;28;20729;-77
2021/01/14 12:03:06;;;;;;;11.30;4.30;;;2.80;99.90;;;;;;4980812;28;20578;-77
2021/01/14 12:05:33;;;;;;;6.13;3.55;;;2.80;99.90;;;;;;4983049;28;20194;-78
2021/01/14 12:07:59;;;;;;;11.63;5.72;;;2.70;99.90;;;;;;4982661;28;20302;-77
2021/01/14 12:10:25;;;;;;;7.50;4.57;;;2.80;99.90;;;;;;4979518;28;20537;-77
2021/01/14 12:12:51;;;;;;;11.30;5.43;;;2.80;99.90;;;;;;4974246;28;20257;-77
2021/01/14 12:15:17;;;;;;;11.47;6.43;;;2.70;99.90;;;;;;4971104;28;20441;-77
2021/01/14 12:17:42;;;;;;;9.40;6.25;;;2.70;99.90;;;;;;4991215;28;20219;-77
2021/01/14 12:20:08;;;;;;;14.93;6.30;;;2.70;99.90;;;;;;5000577;28;20205;-77
2021/01/14 12:22:38;;;;;;;11.73;5.03;;;2.70;99.90;;;;;;4964373;28;20202;-77
2021/01/14 12:25:06;;;;;;;5.45;3.10;;;2.70;99.90;;;;;;4975044;28;20450;-77
2021/01/14 12:27:32;;;;;;;9.07;3.00;;;2.70;99.90;;;;;;4976037;28;20725;-77
2021/01/14 12:29:57;;;;;;;6.97;4.23;;;3.00;99.90;;;;;;4989003;28;20214;-77
2021/01/14 12:32:23;;;;;;;6.73;4.00;;;3.10;99.90;;;;;;4988150;28;20214;-77
2021/01/14 12:34:49;;;;;;;7.50;3.07;;;3.20;99.90;;;;;;4994921;28;20210;-78
2021/01/14 12:37:14;;;;;;;7.87;3.77;;;3.20;99.90;;;;;;4994956;28;20211;-77
2021/01/14 12:39:40;;;;;;;4.83;2.83;;;3.10;99.90;;;;;;4994319;28;20186;-77
2021/01/14 12:42:10;;;;;;;6.87;2.83;;;3.10;99.90;;;;;;4994848;28;20225;-77
2021/01/14 12:44:36;;;;;;;6.30;3.05;;;3.10;99.90;;;;;;4994500;28;20191;-77
2021/01/14 12:47:04;;;;;;;12.23;3.40;;;3.00;99.90;;;;;;4994795;28;20290;-77
2021/01/14 12:49:29;;;;;;;8.10;3.55;;;3.00;99.90;;;;;;4995637;28;20198;-77
2021/01/14 12:51:55;;;;;;;7.77;3.07;;;2.90;99.90;;;;;;4994925;28;20565;-77
2021/01/14 12:54:22;;;;;;;7.20;3.17;;;2.90;99.90;;;;;;4995611;28;20824;-76
2021/01/14 12:56:48;;;;;;;5.05;2.75;;;2.90;99.90;;;;;;4994701;28;20214;-76
2021/01/14 12:59:14;;;;;;;7.88;3.40;;;2.90;99.90;;;;;;4995516;28;20262;-77
2021/01/14 13:01:40;;;;;;;9.07;3.67;;;2.90;99.90;;;;;;4994327;28;20202;-76
2021/01/14 13:04:07;;;;;;;8.13;3.67;;;2.90;99.90;;;;;;4995149;28;20186;-77